Time;durP1;ratioP1;P1;durP2;ratioP2;P2;SDS_P1;SDS_P2;PMS_P1;PMS_P2;Temp;Humidity;BMP_temperature;BMP_pressure;BME280_temperature;BME280_humidity;BME280_pressure;Samples;Min_cycle;Max_cycle;Signal;HPM_P1;HPM_P2
2023/07/27 00:01:39;;;;;;;5.90;4.47;;;25.30;85.90;;;;;;5081183;28;20926;-68
2023/07/27 00:04:05;;;;;;;6.10;4.30;;;25.30;85.80;;;;;;5067847;28;20611;-68
2023/07/27 00:06:31;;;;;;;10.73;4.50;;;25.20;86.00;;;;;;5069884;28;21688;-68
2023/07/27 00:08:57;;;;;;;10.07;4.93;;;25.20;86.00;;;;;;5071991;28;20182;-67
2023/07/27 00:11:24;;;;;;;7.40;4.63;;;25.20;86.00;;;;;;5065909;28;20191;-67
2023/07/27 00:13:50;;;;;;;8.33;4.27;;;25.20;85.70;;;;;;5064993;28;20197;-67
2023/07/27 00:16:16;;;;;;;5.90;4.22;;;25.00;85.40;;;;;;5065512;28;20418;-67
2023/07/27 00:18:42;;;;;;;7.37;4.07;;;24.90;85.60;;;;;;5062001;28;20203;-68
2023/07/27 00:21:08;;;;;;;10.27;4.32;;;24.90;85.80;;;;;;5066933;28;20210;-68
2023/07/27 00:23:35;;;;;;;7.10;4.27;;;24.80;85.90;;;;;;5064393;28;20195;-68
2023/07/27 00:26:01;;;;;;;9.45;4.53;;;24.80;86.00;;;;;;5050549;28;20277;-68
2023/07/27 00:28:27;;;;;;;9.37;4.43;;;24.70;86.10;;;;;;5082793;28;21234;-68
2023/07/27 00:30:53;;;;;;;4.63;3.93;;;24.60;86.00;;;;;;5063474;28;20281;-68
2023/07/27 00:33:20;;;;;;;5.30;4.47;;;24.60;85.90;;;;;;5064687;28;20412;-68
2023/07/27 00:35:57;;;;;;;6.53;4.10;;;24.60;86.00;;;;;;5065107;28;20201;-68
2023/07/27 00:38:23;;;;;;;13.70;4.80;;;24.60;86.30;;;;;;5062296;28;20182;-68
2023/07/27 00:40:50;;;;;;;7.77;4.17;;;24.50;86.60;;;;;;5061191;28;20182;-68
2023/07/27 00:43:16;;;;;;;6.90;4.40;;;24.50;87.30;;;;;;5067087;28;20190;-68
2023/07/27 00:45:43;;;;;;;6.13;4.00;;;24.50;87.50;;;;;;5061812;28;20194;-68
2023/07/27 00:48:09;;;;;;;9.13;4.10;;;24.50;87.50;;;;;;5066120;28;20185;-68
2023/07/27 00:50:37;;;;;;;6.27;4.00;;;24.50;87.40;;;;;;5063653;28;20482;-68
2023/07/27 00:53:09;;;;;;;8.30;4.83;;;24.50;87.30;;;;;;5060996;28;20186;-67
2023/07/27 00:55:36;;;;;;;6.33;4.40;;;24.50;87.30;;;;;;5062032;28;20200;-67
2023/07/27 00:58:03;;;;;;;7.40;4.63;;;24.60;87.20;;;;;;5058555;28;20198;-67
2023/07/27 01:00:30;;;;;;;6.00;3.90;;;24.60;87.20;;;;;;5063067;28;20194;-67
2023/07/27 01:02:58;;;;;;;5.77;4.27;;;24.60;87.10;;;;;;5068835;28;20938;-68
2023/07/27 01:05:24;;;;;;;7.43;4.40;;;24.60;87.50;;;;;;5060598;28;20182;-68
2023/07/27 01:07:50;;;;;;;8.87;4.77;;;24.60;87.40;;;;;;5065570;28;20220;-67
2023/07/27 01:10:24;;;;;;;7.03;4.17;;;24.60;87.50;;;;;;5069077;28;20232;-67
2023/07/27 01:13:08;;;;;;;5.17;4.00;;;24.60;87.60;;;;;;5047052;28;20266;-68
2023/07/27 01:15:40;;;;;;;6.73;4.17;;;24.70;87.50;;;;;;5064075;28;20201;-67
2023/07/27 01:18:25;;;;;;;7.37;4.10;;;24.70;87.20;;;;;;5067912;28;20692;-67
2023/07/27 01:21:15;;;;;;;5.80;4.20;;;24.70;86.70;;;;;;5060519;28;20194;-67
2023/07/27 01:24:11;;;;;;;5.93;4.13;;;24.50;84.20;;;;;;5065345;28;20186;-67
2023/07/27 01:27:00;;;;;;;8.40;4.20;;;24.40;82.70;;;;;;5061087;28;20273;-68
2023/07/27 01:30:26;;;;;;;8.40;4.07;;;24.30;82.20;;;;;;5064421;28;20195;-68
2023/07/27 01:33:07;;;;;;;7.43;3.77;;;24.30;82.00;;;;;;5057789;28;20186;-68
2023/07/27 01:35:45;;;;;;;8.17;4.17;;;24.10;80.40;;;;;;5066879;28;20178;-68
2023/07/27 01:38:13;;;;;;;4.77;4.03;;;24.10;79.90;;;;;;5060268;28;20189;-68
2023/07/27 01:40:42;;;;;;;9.27;4.07;;;24.10;78.50;;;;;;5059101;28;20186;-68
2023/07/27 01:43:10;;;;;;;6.83;4.07;;;24.10;78.70;;;;;;5050493;28;20205;-67
2023/07/27 01:45:40;;;;;;;4.63;3.70;;;24.10;78.20;;;;;;5062673;28;21597;-68
2023/07/27 01:48:09;;;;;;;8.63;4.77;;;24.10;78.10;;;;;;5070575;28;20258;-67
2023/07/27 01:50:36;;;;;;;5.53;4.00;;;24.10;78.10;;;;;;5065248;28;20244;-68
2023/07/27 01:53:04;;;;;;;6.77;3.77;;;24.20;77.60;;;;;;5065310;28;20188;-69
2023/07/27 01:55:32;;;;;;;5.33;4.30;;;24.30;76.10;;;;;;5076899;28;20845;-68
2023/07/27 01:58:02;;;;;;;4.90;4.00;;;24.40;75.80;;;;;;5068803;28;20174;-69
2023/07/27 02:00:29;;;;;;;7.13;3.93;;;24.50;75.10;;;;;;5051324;28;20197;-68
2023/07/27 02:02:57;;;;;;;6.50;4.27;;;24.50;74.10;;;;;;5065927;28;20214;-69
2023/07/27 02:05:24;;;;;;;7.73;4.00;;;24.60;74.20;;;;;;5063562;28;21238;-69
2023/07/27 02:07:51;;;;;;;4.03;3.63;;;24.70;73.80;;;;;;5073704;28;20321;-70
2023/07/27 02:10:20;;;;;;;6.77;3.97;;;24.70;72.50;;;;;;5062233;28;20194;-70
2023/07/27 02:13:21;;;;;;;6.43;4.17;;;24.80;71.90;;;;;;5065015;28;20225;-70
2023/07/27 02:16:22;;;;;;;5.40;4.07;;;24.90;71.70;;;;;;5066817;28;20188;-69
2023/07/27 02:18:51;;;;;;;7.73;3.93;;;24.90;71.30;;;;;;5067425;28;20324;-69
2023/07/27 02:21:21;;;;;;;10.00;4.20;;;25.00;71.00;;;;;;5073341;28;20275;-69
2023/07/27 02:23:48;;;;;;;5.47;4.00;;;25.00;70.40;;;;;;5064531;28;20532;-69
2023/07/27 02:26:15;;;;;;;6.43;4.30;;;25.00;70.30;;;;;;5070055;28;20190;-69
2023/07/27 02:28:43;;;;;;;7.57;4.10;;;25.00;70.70;;;;;;5066384;28;20186;-69
2023/07/27 02:31:09;;;;;;;7.23;4.33;;;25.00;70.50;;;;;;5068723;28;20210;-69
2023/07/27 02:33:35;;;;;;;6.20;3.93;;;25.00;70.20;;;;;;5065417;28;20190;-69
2023/07/27 02:36:01;;;;;;;9.83;4.40;;;25.00;70.60;;;;;;5063330;28;21060;-69
2023/07/27 02:38:27;;;;;;;5.83;4.23;;;25.00;70.50;;;;;;5061734;28;20197;-70
2023/07/27 02:40:53;;;;;;;7.50;4.00;;;25.00;71.40;;;;;;5076047;27;20776;-69
2023/07/27 02:43:20;;;;;;;5.70;4.23;;;25.00;70.90;;;;;;5086664;28;20939;-68
2023/07/27 02:45:47;;;;;;;9.07;4.33;;;24.90;70.30;;;;;;5065028;28;20201;-69
2023/07/27 02:48:13;;;;;;;7.27;4.40;;;24.90;70.20;;;;;;5067050;28;20956;-69
2023/07/27 02:50:50;;;;;;;7.13;3.75;;;24.90;70.20;;;;;;5062303;28;20771;-69
2023/07/27 02:53:17;;;;;;;5.80;4.20;;;24.90;70.10;;;;;;5074620;28;21192;-69
2023/07/27 02:55:53;;;;;;;5.20;4.10;;;24.90;69.80;;;;;;5065393;28;20818;-69
2023/07/27 02:58:19;;;;;;;9.10;4.20;;;24.90;69.70;;;;;;5062794;28;20190;-69
2023/07/27 03:00:55;;;;;;;6.80;4.27;;;24.90;70.50;;;;;;5066656;28;20193;-69
2023/07/27 03:03:22;;;;;;;6.07;4.17;;;24.90;69.40;;;;;;5065783;28;20245;-69
2023/07/27 03:05:48;;;;;;;7.70;4.17;;;24.90;69.80;;;;;;5062011;28;20952;-69
2023/07/27 03:08:14;;;;;;;12.37;5.47;;;24.90;69.60;;;;;;5065427;28;20388;-69
2023/07/27 03:10:41;;;;;;;9.43;4.47;;;24.90;69.70;;;;;;5063628;28;21773;-69
2023/07/27 03:13:07;;;;;;;5.67;3.90;;;24.90;69.50;;;;;;5066547;28;20706;-69
2023/07/27 03:15:33;;;;;;;10.33;4.40;;;24.90;69.70;;;;;;5070712;28;20182;-69
2023/07/27 03:17:59;;;;;;;6.60;4.13;;;24.80;70.20;;;;;;5065392;28;20194;-69
2023/07/27 03:20:25;;;;;;;10.20;3.90;;;24.90;70.30;;;;;;5066345;28;20766;-69
2023/07/27 03:22:51;;;;;;;7.80;4.80;;;24.80;70.10;;;;;;5062064;28;20745;-69
2023/07/27 03:25:18;;;;;;;11.40;4.03;;;24.90;70.30;;;;;;5065039;28;20916;-70
2023/07/27 03:27:44;;;;;;;6.60;4.53;;;24.80;69.80;;;;;;5063617;28;20186;-70
2023/07/27 03:30:11;;;;;;;7.53;4.20;;;24.90;69.70;;;;;;5066573;28;20210;-69
2023/07/27 03:32:38;;;;;;;6.40;4.70;;;24.90;69.50;;;;;;5063641;28;21052;-69
2023/07/27 03:35:05;;;;;;;10.17;4.00;;;24.90;69.60;;;;;;5065056;28;20250;-69
2023/07/27 03:37:31;;;;;;;6.80;4.10;;;24.90;69.60;;;;;;5066446;28;20327;-69
2023/07/27 03:39:57;;;;;;;5.13;4.13;;;25.00;69.80;;;;;;5077998;28;20240;-70
2023/07/27 03:42:24;;;;;;;6.23;4.30;;;25.00;69.90;;;;;;5062449;28;20221;-69
2023/07/27 03:44:50;;;;;;;9.27;4.30;;;25.00;70.10;;;;;;5064265;28;20195;-69
2023/07/27 03:47:16;;;;;;;4.87;4.13;;;25.00;70.10;;;;;;5079053;28;20182;-69
2023/07/27 03:49:42;;;;;;;4.70;4.17;;;25.10;70.00;;;;;;5072316;28;20197;-69
2023/07/27 03:52:09;;;;;;;5.07;4.10;;;25.10;70.30;;;;;;5067173;28;21012;-69
2023/07/27 03:54:35;;;;;;;5.77;3.97;;;25.10;70.20;;;;;;5071381;28;20202;-69
2023/07/27 03:57:01;;;;;;;6.33;4.40;;;25.10;70.40;;;;;;5066633;28;20225;-69
2023/07/27 03:59:27;;;;;;;6.38;4.20;;;25.10;70.80;;;;;;5064177;28;20197;-69
2023/07/27 04:01:53;;;;;;;7.97;4.23;;;25.10;70.80;;;;;;5055111;28;20202;-69
2023/07/27 04:04:20;;;;;;;7.23;4.30;;;25.20;71.20;;;;;;5046926;28;20259;-69
2023/07/27 04:06:46;;;;;;;8.03;4.30;;;25.10;71.00;;;;;;5063300;28;20179;-69
2023/07/27 04:09:13;;;;;;;7.07;4.23;;;25.10;71.00;;;;;;5058525;28;20182;-69
2023/07/27 04:11:39;;;;;;;5.33;4.23;;;25.10;71.30;;;;;;5060219;28;20190;-70
2023/07/27 04:14:05;;;;;;;6.80;4.57;;;25.20;71.30;;;;;;5060689;28;21155;-69
2023/07/27 04:16:31;;;;;;;6.38;4.10;;;25.10;71.60;;;;;;5064805;28;20416;-69
2023/07/27 04:18:57;;;;;;;6.28;4.40;;;25.10;71.80;;;;;;5063117;28;20928;-69
2023/07/27 04:21:23;;;;;;;9.57;4.57;;;25.10;72.10;;;;;;5060146;28;20406;-69
2023/07/27 04:23:50;;;;;;;7.60;4.15;;;25.10;72.20;;;;;;5064504;28;20425;-70
2023/07/27 04:26:16;;;;;;;4.57;4.10;;;25.10;72.50;;;;;;5063965;28;20410;-69
2023/07/27 04:28:42;;;;;;;7.25;4.55;;;25.20;73.00;;;;;;5063803;28;21013;-69
2023/07/27 04:31:09;;;;;;;10.43;4.57;;;25.30;73.20;;;;;;5066989;28;20584;-69
2023/07/27 04:33:35;;;;;;;6.75;4.38;;;25.30;72.90;;;;;;5069042;28;20821;-69
2023/07/27 04:36:01;;;;;;;5.07;4.07;;;25.40;73.30;;;;;;5060885;28;21593;-69
2023/07/27 04:38:27;;;;;;;5.72;3.70;;;25.50;73.30;;;;;;5063775;28;20190;-69
2023/07/27 04:40:54;;;;;;;8.82;4.00;;;25.50;73.90;;;;;;5065345;28;20864;-69
2023/07/27 04:43:20;;;;;;;8.02;3.97;;;25.60;73.20;;;;;;5062818;28;20212;-69
2023/07/27 04:45:47;;;;;;;12.55;4.20;;;25.70;73.30;;;;;;5069235;28;20196;-69
2023/07/27 04:48:13;;;;;;;9.35;4.70;;;25.80;73.10;;;;;;5068644;28;20233;-70
2023/07/27 04:50:39;;;;;;;7.70;4.10;;;25.90;73.10;;;;;;5067450;28;20190;-70
2023/07/27 04:53:05;;;;;;;6.60;4.00;;;26.00;72.60;;;;;;5067495;28;20205;-70
2023/07/27 04:55:31;;;;;;;5.00;4.05;;;26.20;72.40;;;;;;5064061;28;20197;-70
2023/07/27 04:57:58;;;;;;;5.50;4.30;;;26.30;72.70;;;;;;5064231;28;20297;-69
2023/07/27 05:00:24;;;;;;;7.25;3.83;;;26.30;73.30;;;;;;5068245;28;20194;-69
2023/07/27 05:02:50;;;;;;;8.43;4.28;;;26.40;73.70;;;;;;5068758;28;20910;-69
2023/07/27 05:05:16;;;;;;;7.97;4.63;;;26.40;74.10;;;;;;5066440;28;20192;-70
2023/07/27 05:07:43;;;;;;;5.72;4.18;;;26.50;74.90;;;;;;5067776;28;20186;-70
2023/07/27 05:10:09;;;;;;;8.55;4.35;;;26.50;74.50;;;;;;5048676;28;20183;-70
2023/07/27 05:12:35;;;;;;;9.15;4.35;;;26.60;73.60;;;;;;5064550;28;20891;-69
2023/07/27 05:15:01;;;;;;;4.97;3.85;;;26.70;71.80;;;;;;5067001;28;20548;-69
2023/07/27 05:17:28;;;;;;;6.90;4.25;;;26.80;71.60;;;;;;5064058;28;20267;-70
2023/07/27 05:19:54;;;;;;;7.13;4.60;;;26.80;70.80;;;;;;5066415;28;20244;-70
2023/07/27 05:22:21;;;;;;;9.05;4.47;;;26.90;70.40;;;;;;5071390;28;20326;-69
2023/07/27 05:24:47;;;;;;;4.75;4.10;;;27.00;70.40;;;;;;5068702;28;20194;-70
2023/07/27 05:27:13;;;;;;;5.45;4.10;;;27.00;71.20;;;;;;5072278;28;20182;-69
2023/07/27 05:29:39;;;;;;;4.78;4.20;;;27.00;70.70;;;;;;5086368;27;20206;-69
2023/07/27 05:32:06;;;;;;;7.38;4.35;;;27.00;71.70;;;;;;5070614;28;20247;-69
2023/07/27 05:34:34;;;;;;;6.43;3.95;;;27.00;70.80;;;;;;5072133;28;20190;-69
2023/07/27 05:37:01;;;;;;;6.43;4.57;;;27.00;70.80;;;;;;5068406;28;20190;-69
2023/07/27 05:39:29;;;;;;;7.00;4.00;;;27.10;71.60;;;;;;5065349;28;22209;-69
2023/07/27 05:41:55;;;;;;;8.50;3.95;;;27.10;71.10;;;;;;5072525;28;20216;-69
2023/07/27 05:44:21;;;;;;;10.25;4.70;;;27.20;72.40;;;;;;5067252;28;20251;-69
2023/07/27 05:46:54;;;;;;;10.75;4.43;;;27.30;73.00;;;;;;5063787;28;20338;-69
2023/07/27 05:49:21;;;;;;;7.28;3.85;;;27.30;73.30;;;;;;5064748;28;20190;-69
2023/07/27 05:51:47;;;;;;;9.48;4.53;;;27.40;73.80;;;;;;5066380;28;20209;-69
2023/07/27 05:54:13;;;;;;;10.35;4.30;;;27.40;74.00;;;;;;5068194;28;20792;-69
2023/07/27 05:56:40;;;;;;;7.78;4.20;;;27.40;74.50;;;;;;5069876;28;20300;-69
2023/07/27 05:59:06;;;;;;;9.30;4.32;;;27.40;74.60;;;;;;5071694;28;20186;-70
2023/07/27 06:01:33;;;;;;;6.70;4.45;;;27.50;74.10;;;;;;5067147;28;20293;-70
2023/07/27 06:04:01;;;;;;;8.30;4.47;;;27.50;75.00;;;;;;5069714;28;20292;-70
2023/07/27 06:06:27;;;;;;;7.03;4.60;;;27.60;72.70;;;;;;5066275;28;20197;-69
2023/07/27 06:08:54;;;;;;;9.00;4.30;;;27.60;72.90;;;;;;5063590;28;20917;-69
2023/07/27 06:11:20;;;;;;;8.48;4.93;;;27.70;71.50;;;;;;5066301;28;20193;-70
2023/07/27 06:13:46;;;;;;;8.90;4.95;;;27.80;72.70;;;;;;5066887;28;20256;-70
2023/07/27 06:16:13;;;;;;;7.80;4.05;;;27.80;72.80;;;;;;5065273;28;20187;-70
2023/07/27 06:18:39;;;;;;;4.88;3.95;;;27.90;71.90;;;;;;5065090;28;20175;-70
2023/07/27 06:21:05;;;;;;;7.32;4.32;;;27.90;69.90;;;;;;5065757;28;20186;-69
2023/07/27 06:23:31;;;;;;;11.63;4.53;;;28.00;71.00;;;;;;5067157;28;20229;-69
2023/07/27 06:25:58;;;;;;;11.88;4.72;;;28.10;71.00;;;;;;5064205;28;20186;-69
2023/07/27 06:28:24;;;;;;;5.97;4.05;;;28.20;71.50;;;;;;5060974;28;20189;-70
2023/07/27 06:30:50;;;;;;;5.97;4.18;;;28.20;69.60;;;;;;5063378;28;20189;-70
2023/07/27 06:33:16;;;;;;;9.18;4.40;;;28.30;68.10;;;;;;5050953;28;20849;-68
2023/07/27 06:35:43;;;;;;;7.45;4.28;;;28.40;68.70;;;;;;5064957;28;20194;-68
2023/07/27 06:38:09;;;;;;;5.85;4.88;;;28.50;68.90;;;;;;5070754;28;20186;-68
2023/07/27 06:40:36;;;;;;;5.28;4.65;;;28.50;69.50;;;;;;5068869;28;20247;-68
2023/07/27 06:43:02;;;;;;;8.63;4.25;;;28.60;67.80;;;;;;5066883;28;20202;-68
2023/07/27 06:45:28;;;;;;;5.90;4.28;;;28.70;70.60;;;;;;5067892;28;20543;-68
2023/07/27 06:47:54;;;;;;;6.80;4.45;;;28.80;70.00;;;;;;5068961;28;20827;-67
2023/07/27 06:50:20;;;;;;;9.27;4.50;;;28.90;69.80;;;;;;5067938;28;20247;-68
2023/07/27 06:52:47;;;;;;;14.05;4.22;;;29.00;69.60;;;;;;5067164;28;20221;-68
2023/07/27 06:55:13;;;;;;;7.50;4.68;;;29.10;69.40;;;;;;5069240;28;20197;-68
2023/07/27 06:57:39;;;;;;;7.03;4.13;;;29.20;69.00;;;;;;5067921;28;20190;-68
2023/07/27 07:00:07;;;;;;;8.40;4.28;;;29.30;69.40;;;;;;5066684;28;20198;-68
2023/07/27 07:02:34;;;;;;;10.38;3.90;;;29.40;69.60;;;;;;5066241;28;20647;-68
2023/07/27 07:05:01;;;;;;;8.25;4.13;;;29.40;68.90;;;;;;5064085;28;20262;-68
2023/07/27 07:07:27;;;;;;;7.43;4.30;;;29.60;67.90;;;;;;5065309;28;20204;-68
2023/07/27 07:09:53;;;;;;;13.07;4.53;;;29.70;67.40;;;;;;5048167;28;20282;-68
2023/07/27 07:12:20;;;;;;;8.40;4.43;;;29.80;67.40;;;;;;5061267;28;20194;-68
2023/07/27 07:14:46;;;;;;;7.65;4.18;;;29.90;67.50;;;;;;5063855;28;20225;-68
2023/07/27 07:17:12;;;;;;;5.32;4.25;;;30.10;68.50;;;;;;5062419;28;20486;-68
2023/07/27 07:19:39;;;;;;;7.03;3.70;;;30.20;69.90;;;;;;5066842;28;20193;-68
2023/07/27 07:22:05;;;;;;;11.40;4.40;;;30.40;69.40;;;;;;5068024;28;20244;-68
2023/07/27 07:24:31;;;;;;;5.05;3.92;;;30.50;69.30;;;;;;5072155;28;20264;-68
2023/07/27 07:26:58;;;;;;;8.68;4.18;;;30.60;71.00;;;;;;5050871;28;20544;-68
2023/07/27 07:29:24;;;;;;;4.63;3.70;;;30.60;70.70;;;;;;5064930;28;20190;-69
2023/07/27 07:31:51;;;;;;;9.45;4.32;;;30.70;71.60;;;;;;5071634;28;20194;-68
2023/07/27 07:34:17;;;;;;;6.85;3.83;;;30.80;71.80;;;;;;5049005;28;21153;-68
2023/07/27 07:36:43;;;;;;;8.88;4.22;;;30.80;70.60;;;;;;5064408;28;20194;-68
2023/07/27 07:39:10;;;;;;;8.18;4.32;;;30.90;70.20;;;;;;5051075;28;20281;-68
2023/07/27 07:41:36;;;;;;;5.07;4.00;;;31.00;71.10;;;;;;5066981;28;20934;-68
2023/07/27 07:44:02;;;;;;;9.45;4.70;;;31.20;71.60;;;;;;5067688;28;20314;-69
2023/07/27 07:46:29;;;;;;;10.88;4.50;;;31.30;70.80;;;;;;5083444;28;20187;-68
2023/07/27 07:48:57;;;;;;;5.93;4.40;;;31.40;70.30;;;;;;5067945;28;20244;-68
2023/07/27 07:51:23;;;;;;;9.05;4.10;;;31.40;69.40;;;;;;5065483;28;20186;-68
2023/07/27 07:53:50;;;;;;;4.93;4.13;;;31.50;69.10;;;;;;5065452;28;20610;-68
2023/07/27 07:56:17;;;;;;;8.75;3.90;;;31.60;69.20;;;;;;5063214;28;20190;-68
2023/07/27 07:58:44;;;;;;;6.07;4.18;;;31.70;69.20;;;;;;5064455;28;20191;-68
2023/07/27 08:01:11;;;;;;;9.80;4.65;;;31.80;68.90;;;;;;5066028;28;20216;-68
2023/07/27 08:03:37;;;;;;;10.43;4.47;;;31.90;68.00;;;;;;5067347;28;20289;-68
2023/07/27 08:06:07;;;;;;;12.38;4.32;;;32.00;66.50;;;;;;5062723;28;21643;-68
2023/07/27 08:08:35;;;;;;;13.52;4.22;;;32.10;66.60;;;;;;5056485;28;20727;-68
2023/07/27 08:11:05;;;;;;;5.07;4.18;;;32.20;65.90;;;;;;5065378;28;20907;-68
2023/07/27 08:13:32;;;;;;;4.78;3.63;;;32.30;65.30;;;;;;5062169;28;20610;-68
2023/07/27 08:16:03;;;;;;;6.55;4.47;;;32.50;67.40;;;;;;5065934;28;20195;-68
2023/07/27 08:18:31;;;;;;;6.88;4.03;;;32.60;69.10;;;;;;5066998;28;20175;-68
2023/07/27 08:21:04;;;;;;;6.43;4.15;;;32.70;70.40;;;;;;5065358;28;20640;-68
2023/07/27 08:23:31;;;;;;;11.13;4.38;;;32.80;73.30;;;;;;5062019;28;20190;-68
2023/07/27 08:26:00;;;;;;;5.18;4.00;;;33.00;74.20;;;;;;5057873;28;20244;-68
2023/07/27 08:28:26;;;;;;;6.25;4.40;;;33.10;75.30;;;;;;5054276;28;20342;-69
2023/07/27 08:30:53;;;;;;;7.00;4.47;;;33.10;78.80;;;;;;5068701;28;20209;-68
2023/07/27 08:33:20;;;;;;;12.75;4.50;;;33.30;79.30;;;;;;5066722;28;20190;-68
2023/07/27 08:35:46;;;;;;;5.78;4.10;;;33.50;80.50;;;;;;5062023;28;20680;-68
2023/07/27 08:38:13;;;;;;;9.30;4.03;;;33.50;80.60;;;;;;5044799;28;20213;-68
2023/07/27 08:40:39;;;;;;;6.63;4.40;;;33.50;81.60;;;;;;5062848;28;20182;-68
2023/07/27 08:43:08;;;;;;;6.45;4.18;;;33.60;81.50;;;;;;5063674;28;20284;-68
2023/07/27 08:45:36;;;;;;;9.90;4.28;;;33.70;82.00;;;;;;5042945;28;20297;-68
2023/07/27 08:48:05;;;;;;;7.28;4.30;;;33.70;82.40;;;;;;5064902;28;20178;-68
2023/07/27 08:50:33;;;;;;;7.22;4.60;;;33.80;82.70;;;;;;5063740;28;20668;-68
2023/07/27 08:52:59;;;;;;;6.95;4.50;;;33.90;83.40;;;;;;5055826;28;20186;-68
2023/07/27 08:55:26;;;;;;;7.15;4.38;;;34.00;83.10;;;;;;5071424;28;20248;-68
2023/07/27 08:57:52;;;;;;;9.90;4.50;;;34.10;83.90;;;;;;5074952;28;21087;-68
2023/07/27 09:00:19;;;;;;;6.75;4.05;;;34.20;84.10;;;;;;5072447;28;20182;-68
2023/07/27 09:02:46;;;;;;;4.90;4.07;;;34.40;84.50;;;;;;5076789;28;20244;-68
2023/07/27 09:05:15;;;;;;;5.32;4.25;;;34.40;84.20;;;;;;5067992;28;20225;-68
2023/07/27 09:07:41;;;;;;;6.05;3.92;;;34.40;83.70;;;;;;5050411;28;20271;-68
2023/07/27 09:10:11;;;;;;;5.55;4.15;;;34.60;84.10;;;;;;5071741;28;20232;-68
2023/07/27 09:12:38;;;;;;;9.68;4.40;;;34.70;84.20;;;;;;5082159;28;20211;-68
2023/07/27 09:15:22;;;;;;;6.55;4.35;;;34.90;83.30;;;;;;5070807;28;20179;-68
2023/07/27 09:17:49;;;;;;;6.45;3.83;;;34.90;82.50;;;;;;5068403;28;20193;-68
2023/07/27 09:20:22;;;;;;;8.90;4.50;;;34.90;82.50;;;;;;5070025;28;20197;-68
2023/07/27 09:22:49;;;;;;;6.15;4.10;;;35.00;82.10;;;;;;5074222;28;20206;-68
2023/07/27 09:25:23;;;;;;;7.65;4.07;;;35.10;80.50;;;;;;5071719;28;20660;-68
2023/07/27 09:27:55;;;;;;;7.13;4.28;;;35.20;80.80;;;;;;5074696;28;20199;-68
2023/07/27 09:30:26;;;;;;;8.63;4.13;;;35.50;80.90;;;;;;5072480;28;20713;-69
2023/07/27 09:32:53;;;;;;;6.53;4.50;;;35.50;81.60;;;;;;5072425;28;20191;-68
2023/07/27 09:35:22;;;;;;;6.47;4.03;;;35.50;81.40;;;;;;5069858;28;20194;-68
2023/07/27 09:37:51;;;;;;;5.15;4.22;;;35.70;81.20;;;;;;5072646;28;20174;-68
2023/07/27 09:40:22;;;;;;;6.65;4.57;;;35.70;81.20;;;;;;5074579;28;20661;-68
2023/07/27 09:42:49;;;;;;;8.00;4.03;;;35.50;80.40;;;;;;5083697;28;20546;-68
2023/07/27 09:45:15;;;;;;;8.30;4.55;;;35.70;81.80;;;;;;5065638;28;20194;-68
2023/07/27 09:47:42;;;;;;;5.35;3.97;;;35.90;81.70;;;;;;5091844;27;20183;-68
2023/07/27 09:50:10;;;;;;;5.60;3.80;;;35.90;81.10;;;;;;5070357;28;20241;-68
2023/07/27 09:52:39;;;;;;;6.43;4.00;;;35.90;80.50;;;;;;5069238;28;20248;-68
2023/07/27 09:55:07;;;;;;;6.00;4.28;;;35.90;79.80;;;;;;5065915;28;20187;-68
2023/07/27 09:57:33;;;;;;;6.35;4.22;;;36.10;80.40;;;;;;5055765;28;20197;-68
2023/07/27 10:00:04;;;;;;;8.35;4.30;;;36.40;79.70;;;;;;5063220;28;20221;-68
2023/07/27 10:02:33;;;;;;;6.57;4.20;;;36.30;78.60;;;;;;5072302;28;20236;-68
2023/07/27 10:05:03;;;;;;;10.50;4.05;;;36.30;77.90;;;;;;5066386;28;20193;-68
2023/07/27 10:07:29;;;;;;;6.45;4.22;;;36.50;78.60;;;;;;5078869;28;20629;-68
2023/07/27 10:10:53;;;;;;;6.45;4.32;;;36.50;77.90;;;;;;5077990;28;20552;-68
2023/07/27 10:13:22;;;;;;;6.57;4.10;;;36.50;78.10;;;;;;5046109;28;20198;-68
2023/07/27 10:15:52;;;;;;;6.03;4.32;;;36.50;77.70;;;;;;5076756;28;20620;-68
2023/07/27 10:18:27;;;;;;;10.05;4.32;;;36.50;77.60;;;;;;5071016;28;20743;-68
2023/07/27 10:21:23;;;;;;;12.20;4.20;;;36.70;78.10;;;;;;5073622;28;20604;-69
2023/07/27 10:24:03;;;;;;;8.20;3.92;;;36.60;77.80;;;;;;5073245;28;20202;-69
2023/07/27 10:26:51;;;;;;;7.40;4.00;;;36.60;77.60;;;;;;5070642;28;20305;-69
2023/07/27 10:29:23;;;;;;;10.43;3.67;;;36.50;77.40;;;;;;5071014;28;20670;-69
2023/07/27 10:32:06;;;;;;;5.75;4.07;;;36.60;77.70;;;;;;5068450;28;20239;-69
2023/07/27 10:34:35;;;;;;;6.30;3.50;;;36.70;74.60;;;;;;5072447;28;20537;-69
2023/07/27 10:37:03;;;;;;;4.57;3.90;;;36.70;73.70;;;;;;5069717;28;20262;-69
2023/07/27 10:39:47;;;;;;;9.27;4.32;;;36.60;74.10;;;;;;5074741;28;20231;-69
2023/07/27 10:42:20;;;;;;;5.43;4.30;;;36.40;72.10;;;;;;5070503;28;20201;-69
2023/07/27 10:44:58;;;;;;;4.93;4.10;;;36.40;74.40;;;;;;5070049;28;21033;-69
2023/07/27 10:47:33;;;;;;;9.88;3.97;;;36.30;74.40;;;;;;5079912;28;20186;-69
2023/07/27 10:50:00;;;;;;;7.80;3.55;;;36.30;74.30;;;;;;5084892;28;20763;-69
2023/07/27 10:52:34;;;;;;;11.55;4.00;;;36.30;74.10;;;;;;5068877;28;20194;-69
2023/07/27 10:55:03;;;;;;;6.45;3.95;;;36.20;66.90;;;;;;5070742;28;20213;-69
2023/07/27 10:57:32;;;;;;;5.22;4.05;;;36.20;66.90;;;;;;5062428;28;20190;-69
2023/07/27 11:00:00;;;;;;;7.47;4.35;;;36.10;66.20;;;;;;5070267;28;20190;-68
2023/07/27 11:02:36;;;;;;;5.47;3.60;;;36.10;64.70;;;;;;5068805;28;20206;-68
2023/07/27 11:05:07;;;;;;;6.95;3.83;;;36.10;63.40;;;;;;5077775;28;20201;-68
2023/07/27 11:07:40;;;;;;;5.95;4.10;;;36.10;63.90;;;;;;5082267;28;20671;-68
2023/07/27 11:10:10;;;;;;;8.65;4.07;;;36.10;63.00;;;;;;5077160;28;20837;-69
2023/07/27 11:12:50;;;;;;;7.80;4.18;;;36.10;62.70;;;;;;5082260;28;20276;-69
2023/07/27 11:15:22;;;;;;;11.18;4.00;;;36.00;63.50;;;;;;5081328;28;20204;-68
2023/07/27 11:17:59;;;;;;;7.45;4.30;;;36.00;64.10;;;;;;5062121;28;20553;-68
2023/07/27 11:20:30;;;;;;;6.13;3.75;;;36.00;63.30;;;;;;5080080;28;20648;-68
2023/07/27 11:22:58;;;;;;;4.57;3.67;;;36.00;63.30;;;;;;5083282;28;20362;-68
2023/07/27 11:25:25;;;;;;;7.50;3.95;;;36.00;62.90;;;;;;5079969;28;20186;-68
2023/07/27 11:27:53;;;;;;;7.68;4.30;;;36.00;63.40;;;;;;5064053;28;20179;-68
2023/07/27 11:30:21;;;;;;;7.03;4.32;;;35.90;62.90;;;;;;5080999;28;20376;-68
2023/07/27 11:33:02;;;;;;;4.97;3.90;;;35.90;63.20;;;;;;5080072;28;20675;-68
2023/07/27 11:35:29;;;;;;;5.88;3.47;;;35.90;63.20;;;;;;5082091;28;20191;-69
2023/07/27 11:37:55;;;;;;;6.65;3.90;;;35.90;63.30;;;;;;5075140;28;20242;-69
2023/07/27 11:40:23;;;;;;;9.18;4.00;;;35.80;63.20;;;;;;5084037;28;20196;-69
2023/07/27 11:42:49;;;;;;;7.45;3.33;;;35.80;63.30;;;;;;5080228;28;20210;-69
2023/07/27 11:45:16;;;;;;;5.85;3.90;;;35.80;63.10;;;;;;5080849;28;20198;-68
2023/07/27 11:47:43;;;;;;;8.63;3.97;;;35.70;62.90;;;;;;5085511;28;20231;-69
2023/07/27 11:50:14;;;;;;;8.82;4.07;;;35.70;62.70;;;;;;5080321;28;20228;-69
2023/07/27 11:52:40;;;;;;;5.30;4.00;;;35.70;63.20;;;;;;5079264;28;20182;-69
2023/07/27 11:55:08;;;;;;;6.63;4.13;;;35.70;63.40;;;;;;5072318;28;20742;-69
2023/07/27 11:57:34;;;;;;;9.05;4.10;;;35.70;62.90;;;;;;5076548;28;20705;-68
2023/07/27 12:00:14;;;;;;;4.93;3.63;;;35.70;63.30;;;;;;5064304;28;20186;-68
2023/07/27 12:02:48;;;;;;;12.70;4.05;;;35.70;61.90;;;;;;5082243;28;20773;-68
2023/07/27 12:05:21;;;;;;;8.65;3.60;;;35.70;62.30;;;;;;5083759;28;20211;-68
2023/07/27 12:07:52;;;;;;;6.50;3.60;;;35.70;62.80;;;;;;5081847;28;20171;-69
2023/07/27 12:10:20;;;;;;;6.53;4.07;;;35.60;61.40;;;;;;5076248;28;20273;-69
2023/07/27 12:13:07;;;;;;;5.05;3.90;;;35.60;62.20;;;;;;5095725;28;20234;-69
2023/07/27 12:15:36;;;;;;;11.48;4.18;;;35.60;62.10;;;;;;5077570;28;20213;-68
2023/07/27 12:18:06;;;;;;;5.28;3.67;;;35.60;63.10;;;;;;5078704;28;20186;-68
2023/07/27 12:20:36;;;;;;;4.85;3.72;;;35.60;63.10;;;;;;5081828;28;20179;-68
2023/07/27 12:23:02;;;;;;;4.00;3.58;;;35.60;62.30;;;;;;5083225;28;20313;-68
2023/07/27 12:25:29;;;;;;;3.83;3.42;;;35.50;61.70;;;;;;5088629;28;20264;-69
2023/07/27 12:27:56;;;;;;;6.88;4.18;;;35.50;62.20;;;;;;5081319;28;20182;-69
2023/07/27 12:30:23;;;;;;;8.23;4.10;;;35.50;63.20;;;;;;5079736;28;20198;-68
2023/07/27 12:32:51;;;;;;;10.85;4.00;;;35.40;63.50;;;;;;5056954;28;20178;-68
2023/07/27 12:35:17;;;;;;;6.60;3.90;;;35.40;62.40;;;;;;5095226;28;20190;-68
2023/07/27 12:37:43;;;;;;;11.38;3.88;;;35.40;62.10;;;;;;5087158;28;20187;-68
2023/07/27 12:40:11;;;;;;;4.72;3.78;;;35.40;62.40;;;;;;5071559;28;20640;-69
2023/07/27 12:42:38;;;;;;;8.50;4.10;;;35.30;62.90;;;;;;5080022;28;20194;-68
2023/07/27 12:45:06;;;;;;;9.77;4.05;;;35.30;62.30;;;;;;5073817;28;20178;-68
2023/07/27 12:47:33;;;;;;;5.38;3.90;;;35.20;61.20;;;;;;5088326;28;20178;-68
2023/07/27 12:49:59;;;;;;;4.38;3.55;;;35.20;60.30;;;;;;5080293;28;20178;-68
2023/07/27 12:52:25;;;;;;;5.05;3.80;;;35.20;59.50;;;;;;5081368;28;20183;-68
2023/07/27 12:54:51;;;;;;;8.70;4.13;;;35.20;59.10;;;;;;5083316;28;20183;-68